Riparius, New York
Current Conditions -  °F | °C
As of 4:50 AM on Friday 24 Oct 2014 (Local Time) from KGFL Reporting Station
Light Rain Light Rain  
Wind Chill: 42°   Ceiling: 2200
Heat Index: 45°   Visibility: 8mi
Dew Point: 43°   Wind: 5mph
Humidity: 93%   Direction: 80°E
Pressure: 29.82"   Gusts: NA
Location:  43.66°N, 73.9°W
Report Text: KGFL 240850Z AUTO 08004KT 8SM -RA FEW016 BKN022 OVC035 07/06 A2982 RMK AO2 RAB17 P0002
Loading
Personal Weather Stations






























Interactive Weather Map
Tropical Storm Tracking
New forecast layout! Learn more

10-Day Weather Forecast

Advertisements
Track Severe Weather on mobile